Time;durP1;ratioP1;P1;durP2;ratioP2;P2;SDS_P1;SDS_P2;PMS_P1;PMS_P2;Temp;Humidity;BMP_temperature;BMP_pressure;BME280_temperature;BME280_humidity;BME280_pressure;Samples;Min_cycle;Max_cycle;Signal;HPM_P1;HPM_P2
2022/02/08 00:01:07;;;;;;;0.80;0.50;;;4.80;57.30;;;;;;5033204;28;20038;-66
2022/02/08 00:04:12;;;;;;;0.70;0.50;;;4.80;57.00;;;;;;5033523;28;20374;-66
2022/02/08 00:07:16;;;;;;;0.77;0.47;;;4.80;57.30;;;;;;5033364;28;20072;-66
2022/02/08 00:10:21;;;;;;;1.27;0.50;;;4.70;56.70;;;;;;5032834;28;20036;-66
2022/02/08 00:13:25;;;;;;;0.88;0.68;;;4.80;57.60;;;;;;5033629;28;20037;-66
2022/02/08 00:16:30;;;;;;;2.53;0.73;;;4.70;58.20;;;;;;5032917;28;20037;-66
2022/02/08 00:19:35;;;;;;;1.50;0.80;;;4.70;58.50;;;;;;5032942;28;20528;-66
2022/02/08 00:22:39;;;;;;;2.33;0.63;;;4.50;59.60;;;;;;5032979;28;20044;-66
2022/02/08 00:25:44;;;;;;;1.70;0.77;;;4.40;59.60;;;;;;5033197;28;20048;-66
2022/02/08 00:28:48;;;;;;;1.13;0.80;;;4.30;60.10;;;;;;5032590;28;20044;-66
2022/02/08 00:31:52;;;;;;;1.50;0.75;;;4.20;59.70;;;;;;5033514;28;20046;-66
2022/02/08 00:34:56;;;;;;;3.22;0.95;;;4.10;61.10;;;;;;5032773;28;20049;-66
2022/02/08 00:38:01;;;;;;;1.25;0.63;;;4.00;60.20;;;;;;5032378;28;20037;-66
2022/02/08 00:41:05;;;;;;;0.70;0.68;;;3.90;60.10;;;;;;5032600;28;20056;-65
2022/02/08 00:44:18;;;;;;;1.10;0.68;;;3.90;60.70;;;;;;5032744;28;20050;-66
2022/02/08 00:47:33;;;;;;;0.93;0.60;;;3.90;61.20;;;;;;5033295;28;20029;-68
2022/02/08 00:50:40;;;;;;;1.48;0.85;;;3.80;61.20;;;;;;5031832;28;20037;-65
2022/02/08 00:53:45;;;;;;;3.03;0.90;;;3.70;60.90;;;;;;5032439;28;20037;-68
2022/02/08 00:56:50;;;;;;;1.42;0.80;;;3.80;60.60;;;;;;5031026;28;20595;-68
2022/02/08 00:59:54;;;;;;;1.83;0.90;;;3.80;59.70;;;;;;5031217;28;20044;-68
2022/02/08 01:02:59;;;;;;;3.08;0.70;;;3.90;59.50;;;;;;5031361;28;20407;-68
2022/02/08 01:06:06;;;;;;;0.90;0.80;;;3.90;59.60;;;;;;5032558;28;20376;-65
2022/02/08 01:09:18;;;;;;;2.50;1.00;;;3.90;59.80;;;;;;5031863;28;20495;-67
2022/02/08 01:12:24;;;;;;;2.38;1.00;;;3.90;59.30;;;;;;5031991;28;20044;-68
2022/02/08 01:15:28;;;;;;;1.63;0.65;;;3.90;59.90;;;;;;5032345;28;20491;-68
2022/02/08 01:18:38;;;;;;;2.90;1.00;;;3.90;61.30;;;;;;5030896;28;20052;-67
2022/02/08 01:21:42;;;;;;;6.18;1.10;;;3.80;61.50;;;;;;5032062;28;20041;-68
2022/02/08 01:24:47;;;;;;;1.75;1.13;;;3.80;61.00;;;;;;5031451;28;20495;-67
2022/02/08 01:27:54;;;;;;;1.50;0.80;;;3.70;61.30;;;;;;5032028;28;20041;-67
2022/02/08 01:31:03;;;;;;;1.15;0.65;;;3.60;60.30;;;;;;5031943;28;20072;-68
2022/02/08 01:34:24;;;;;;;1.70;1.00;;;3.60;63.40;;;;;;5031013;28;20034;-67
2022/02/08 01:37:57;;;;;;;1.42;0.80;;;3.50;64.10;;;;;;5031507;28;20037;-67
2022/02/08 01:41:43;;;;;;;2.22;1.25;;;3.30;66.00;;;;;;5030824;28;20052;-68
2022/02/08 01:51:07;;;;;;;2.13;1.10;;;3.00;65.20;;;;;;5030754;28;20045;-68
2022/02/08 01:54:11;;;;;;;2.50;1.27;;;2.70;67.40;;;;;;5031545;28;20037;-67
2022/02/08 01:57:15;;;;;;;2.83;1.10;;;2.20;71.30;;;;;;5030352;28;20056;-67
2022/02/08 02:00:20;;;;;;;1.83;1.10;;;2.00;72.00;;;;;;5030931;28;20044;-67
2022/02/08 02:03:27;;;;;;;1.67;1.17;;;1.80;72.80;;;;;;5030450;28;20038;-67
2022/02/08 02:06:31;;;;;;;2.60;1.30;;;1.70;73.20;;;;;;5030998;28;20052;-67
2022/02/08 02:09:38;;;;;;;2.65;1.98;;;1.60;73.70;;;;;;5028782;28;20499;-67
2022/02/08 02:12:50;;;;;;;4.25;2.38;;;1.50;74.10;;;;;;5030147;28;20030;-67
2022/02/08 02:15:56;;;;;;;4.22;2.10;;;1.40;74.80;;;;;;5030310;28;20464;-67
2022/02/08 02:19:00;;;;;;;3.50;2.17;;;1.40;74.80;;;;;;5029835;28;20052;-67
2022/02/08 02:22:09;;;;;;;6.22;2.67;;;1.50;74.20;;;;;;5030099;28;20056;-67
2022/02/08 02:25:23;;;;;;;5.50;2.15;;;1.40;74.70;;;;;;5029542;28;20052;-67
2022/02/08 02:28:27;;;;;;;4.82;2.38;;;1.60;74.00;;;;;;5029351;28;20036;-67
2022/02/08 02:31:32;;;;;;;5.22;2.83;;;1.60;72.80;;;;;;5031105;28;20396;-67
2022/02/08 02:34:48;;;;;;;5.70;2.88;;;1.80;72.80;;;;;;5030919;28;20499;-68
2022/02/08 02:37:55;;;;;;;5.93;3.00;;;1.70;73.00;;;;;;5030627;28;20037;-67
2022/02/08 02:41:00;;;;;;;8.23;3.53;;;1.70;73.20;;;;;;5029899;28;20056;-68
2022/02/08 02:44:06;;;;;;;6.30;3.35;;;1.70;74.20;;;;;;5029683;28;20033;-68
2022/02/08 02:47:11;;;;;;;6.25;3.95;;;1.60;74.80;;;;;;5029623;28;20036;-67
2022/02/08 02:50:14;;;;;;;7.28;3.95;;;1.50;74.30;;;;;;5030281;28;20045;-68
2022/02/08 02:53:26;;;;;;;5.75;3.15;;;1.50;76.00;;;;;;5029549;28;20042;-68
2022/02/08 02:56:30;;;;;;;9.75;4.25;;;1.30;76.40;;;;;;5029342;28;20037;-68
2022/02/08 02:59:37;;;;;;;7.57;3.83;;;1.20;77.50;;;;;;5028825;28;20045;-67
2022/02/08 03:19:06;;;;;;;21.92;3.72;;;1.50;76.70;;;;;;5028964;28;20125;-67
2022/02/08 03:22:10;;;;;;;7.43;3.10;;;1.40;75.10;;;;;;5033958;28;20048;-67
2022/02/08 03:25:14;;;;;;;4.53;2.50;;;1.60;73.30;;;;;;5033790;28;20041;-67
2022/02/08 03:28:20;;;;;;;7.22;3.22;;;1.80;73.70;;;;;;5033265;28;20057;-67
2022/02/08 03:31:25;;;;;;;5.32;2.78;;;1.90;73.30;;;;;;5032973;28;20045;-68
2022/02/08 03:34:29;;;;;;;6.53;2.90;;;1.90;72.60;;;;;;5033157;28;20484;-68
2022/02/08 03:37:34;;;;;;;5.75;2.50;;;1.90;72.20;;;;;;5033146;28;20045;-67
2022/02/08 03:40:42;;;;;;;4.68;2.20;;;2.00;72.50;;;;;;5032762;28;20414;-67
2022/02/08 03:43:48;;;;;;;4.47;2.53;;;2.00;71.40;;;;;;5032935;28;20042;-68
2022/02/08 03:46:57;;;;;;;4.00;2.60;;;2.10;71.30;;;;;;5032912;28;20057;-67
2022/02/08 03:50:03;;;;;;;4.30;2.45;;;2.10;72.10;;;;;;5033511;28;20034;-67
2022/02/08 03:53:07;;;;;;;4.85;2.88;;;2.00;73.90;;;;;;5033749;28;20052;-67
2022/02/08 03:56:13;;;;;;;5.07;3.00;;;2.00;71.20;;;;;;5032763;28;20033;-67
2022/02/08 03:59:18;;;;;;;5.90;3.10;;;2.00;73.50;;;;;;5032341;28;20060;-67
2022/02/08 04:05:37;;;;;;;5.93;2.63;;;1.90;74.30;;;;;;5033510;28;20044;-67
2022/02/08 04:08:42;;;;;;;6.80;2.97;;;1.80;75.60;;;;;;5032999;28;20045;-67
2022/02/08 04:15:51;;;;;;;4.82;2.95;;;1.90;72.00;;;;;;5033101;28;20044;-67
2022/02/08 04:31:31;;;;;;;5.38;3.28;;;1.80;74.80;;;;;;5033208;28;20033;-67
2022/02/08 04:41:50;;;;;;;5.75;3.20;;;1.50;74.40;;;;;;5032551;28;20049;-67
2022/02/08 04:51:30;;;;;;;5.88;3.42;;;1.50;73.70;;;;;;5032811;28;20044;-67
2022/02/08 05:44:34;;;;;;;10.68;5.45;;;0.50;81.40;;;;;;5030888;28;20048;-67
2022/02/08 05:47:13;;;;;;;9.93;4.15;;;0.50;80.50;;;;;;5031705;28;20440;-67
2022/02/08 05:50:37;;;;;;;6.95;2.97;;;0.60;81.40;;;;;;5031114;28;20496;-67
2022/02/08 05:53:45;;;;;;;8.35;3.97;;;0.70;79.80;;;;;;5031065;28;20049;-67
2022/02/08 05:56:53;;;;;;;11.65;6.57;;;0.80;79.70;;;;;;5031714;28;20041;-67
2022/02/08 05:59:57;;;;;;;8.10;5.20;;;0.80;78.50;;;;;;5030833;28;20091;-67
2022/02/08 06:03:04;;;;;;;12.75;4.30;;;0.80;79.90;;;;;;5031184;28;20049;-67
2022/02/08 06:06:15;;;;;;;6.75;4.38;;;0.90;82.00;;;;;;5030285;28;20048;-67
2022/02/08 06:09:20;;;;;;;7.38;3.58;;;0.80;81.20;;;;;;5030996;28;20369;-66
2022/02/08 06:12:26;;;;;;;7.40;3.40;;;0.70;81.50;;;;;;5030577;28;20045;-67
2022/02/08 06:15:37;;;;;;;7.28;3.35;;;0.60;80.30;;;;;;5029664;28;20037;-67
2022/02/08 06:18:42;;;;;;;7.82;4.43;;;0.70;80.00;;;;;;5029371;28;20509;-67
2022/02/08 06:21:46;;;;;;;8.73;4.75;;;0.80;80.60;;;;;;5030664;28;20366;-67
2022/02/08 06:24:50;;;;;;;9.90;4.32;;;0.80;79.40;;;;;;5030574;28;20029;-67
2022/02/08 06:27:54;;;;;;;10.50;5.30;;;0.70;80.40;;;;;;5030851;28;20041;-67
2022/02/08 06:30:58;;;;;;;8.82;4.95;;;0.60;82.50;;;;;;5030422;28;20045;-67
2022/02/08 06:34:02;;;;;;;17.10;5.95;;;0.40;85.30;;;;;;5030606;28;20037;-67
2022/02/08 06:37:11;;;;;;;10.73;4.80;;;0.40;86.30;;;;;;5031158;28;20048;-67
2022/02/08 06:40:16;;;;;;;18.65;5.80;;;0.30;88.70;;;;;;5030164;28;20499;-67
2022/02/08 06:43:21;;;;;;;7.80;4.68;;;0.30;88.30;;;;;;5031101;28;20052;-67
2022/02/08 06:46:28;;;;;;;7.85;4.07;;;0.30;89.60;;;;;;5030310;28;20432;-68
2022/02/08 06:49:32;;;;;;;12.07;4.70;;;0.30;88.20;;;;;;5029862;28;20052;-67
2022/02/08 06:52:37;;;;;;;12.27;5.22;;;0.30;88.70;;;;;;5025273;28;20048;-67
2022/02/08 06:55:41;;;;;;;7.25;3.88;;;0.30;88.40;;;;;;5028107;28;20048;-67
2022/02/08 06:58:52;;;;;;;6.75;3.90;;;0.20;89.30;;;;;;5025250;28;20045;-67
2022/02/08 07:01:56;;;;;;;8.00;3.75;;;0.90;90.30;;;;;;5030125;28;20029;-67
2022/02/08 07:05:00;;;;;;;11.30;3.97;;;4.60;87.20;;;;;;5028326;28;20417;-67
2022/02/08 07:08:06;;;;;;;10.82;4.30;;;8.40;77.10;;;;;;5029477;28;20044;-65
2022/02/08 07:11:16;;;;;;;6.32;3.67;;;11.50;70.20;;;;;;5028965;28;20056;-65
2022/02/08 07:14:26;;;;;;;6.97;4.20;;;13.80;64.60;;;;;;5022659;28;20037;-65
2022/02/08 07:17:31;;;;;;;6.55;3.58;;;15.60;60.40;;;;;;5025085;28;20042;-65
2022/02/08 07:20:36;;;;;;;6.93;3.92;;;16.80;58.40;;;;;;5026988;28;20373;-66
2022/02/08 07:23:40;;;;;;;7.05;3.83;;;17.70;56.60;;;;;;5028166;28;20045;-65
2022/02/08 07:26:46;;;;;;;9.38;4.25;;;18.90;55.60;;;;;;5028535;28;20048;-66
2022/02/08 07:29:54;;;;;;;6.00;3.90;;;19.30;53.30;;;;;;5026887;28;20048;-66
2022/02/08 07:33:16;;;;;;;9.80;3.97;;;18.20;52.60;;;;;;5022225;28;20396;-66
2022/02/08 07:39:38;;;;;;;6.55;3.78;;;19.80;49.90;;;;;;5026984;28;20044;-66
2022/02/08 07:42:43;;;;;;;8.30;3.92;;;19.40;51.00;;;;;;5020552;28;20048;-66
2022/02/08 07:45:48;;;;;;;5.63;3.72;;;20.50;50.50;;;;;;5023512;28;20121;-66
2022/02/08 07:48:53;;;;;;;5.65;4.10;;;21.40;49.70;;;;;;5025243;28;20070;-66
2022/02/08 07:51:57;;;;;;;6.00;3.95;;;19.90;49.40;;;;;;5027915;28;20048;-66
2022/02/08 07:55:02;;;;;;;5.18;3.78;;;18.10;49.60;;;;;;5026861;28;20060;-66
2022/02/08 07:58:07;;;;;;;5.38;3.60;;;14.50;52.80;;;;;;5022066;28;20037;-66
2022/02/08 08:01:12;;;;;;;3.63;2.75;;;15.20;54.40;;;;;;5022016;28;20037;-66
2022/02/08 08:04:16;;;;;;;5.65;3.50;;;17.70;52.90;;;;;;5028552;28;20040;-66
2022/02/08 08:07:19;;;;;;;5.20;2.83;;;19.80;51.90;;;;;;5023958;28;20048;-66
2022/02/08 08:10:29;;;;;;;4.68;3.05;;;21.30;50.40;;;;;;5028842;28;20033;-66
2022/02/08 08:13:39;;;;;;;4.85;3.00;;;22.60;49.20;;;;;;5033812;28;20036;-66
2022/02/08 08:16:57;;;;;;;5.22;2.78;;;23.30;48.30;;;;;;5031620;28;20040;-66
2022/02/08 08:20:03;;;;;;;5.63;3.50;;;23.30;48.00;;;;;;5030610;28;20491;-66
2022/02/08 08:23:07;;;;;;;5.35;3.95;;;22.30;48.40;;;;;;5033982;28;20494;-67
2022/02/08 08:26:11;;;;;;;5.25;3.42;;;19.40;49.20;;;;;;5023465;28;20075;-66
2022/02/08 08:29:15;;;;;;;5.63;3.75;;;18.50;50.50;;;;;;5031166;28;20040;-66
2022/02/08 08:32:19;;;;;;;4.90;3.75;;;17.20;52.20;;;;;;5023321;28;20487;-66
2022/02/08 08:35:23;;;;;;;7.50;3.70;;;17.10;53.50;;;;;;5032217;28;20064;-66
2022/02/08 08:38:30;;;;;;;5.55;3.80;;;15.50;54.70;;;;;;5025402;28;20044;-66
2022/02/08 08:41:42;;;;;;;9.57;5.18;;;14.10;58.60;;;;;;5026100;28;20036;-66
2022/02/08 08:54:19;;;;;;;8.88;5.95;;;16.20;56.50;;;;;;5025670;28;20040;-66
2022/02/08 08:57:23;;;;;;;10.68;6.70;;;14.00;58.30;;;;;;5028463;28;20539;-66
2022/02/08 09:00:26;;;;;;;14.25;7.60;;;14.10;57.70;;;;;;5028323;28;20044;-66
2022/02/08 09:03:31;;;;;;;14.88;7.38;;;16.10;57.80;;;;;;5031428;28;20060;-66
2022/02/08 09:06:36;;;;;;;10.00;6.43;;;16.60;56.00;;;;;;5028872;28;20045;-66
2022/02/08 09:09:44;;;;;;;10.25;6.60;;;16.90;54.30;;;;;;5027176;28;20033;-66
2022/02/08 09:28:56;;;;;;;13.30;9.00;;;26.60;48.40;;;;;;5021389;28;20052;-67
2022/02/08 09:32:11;;;;;;;13.65;8.90;;;27.60;47.60;;;;;;5025832;28;20048;-67
2022/02/08 09:35:17;;;;;;;11.27;7.72;;;28.40;47.90;;;;;;5025006;28;20077;-67
2022/02/08 09:38:22;;;;;;;10.10;6.97;;;29.40;47.10;;;;;;5024697;28;20036;-67
2022/02/08 09:41:30;;;;;;;9.40;6.35;;;30.80;46.20;;;;;;5023656;28;20040;-66
2022/02/08 09:44:37;;;;;;;10.00;6.47;;;28.40;44.90;;;;;;5030565;28;20483;-67
2022/02/08 09:47:51;;;;;;;10.80;7.13;;;27.20;46.60;;;;;;5025328;28;20057;-66
2022/02/08 09:50:56;;;;;;;10.27;6.50;;;24.60;46.60;;;;;;5028999;28;20036;-67
2022/02/08 09:54:03;;;;;;;10.52;6.28;;;24.90;48.30;;;;;;5030392;28;20044;-66
2022/02/08 09:57:07;;;;;;;7.35;5.75;;;26.40;48.10;;;;;;5026936;28;20052;-67
2022/02/08 10:00:17;;;;;;;7.15;5.40;;;26.50;47.30;;;;;;5027740;28;20053;-67
2022/02/08 10:03:23;;;;;;;10.80;5.45;;;26.40;47.20;;;;;;5027164;28;20053;-67
2022/02/08 10:06:31;;;;;;;8.40;6.13;;;28.30;46.70;;;;;;5002398;28;20049;-66
2022/02/08 10:09:36;;;;;;;11.30;5.35;;;26.70;47.10;;;;;;5024148;28;20380;-67
2022/02/08 10:22:43;;;;;;;9.45;5.93;;;29.10;44.30;;;;;;5027101;28;20044;-67
2022/02/08 10:25:59;;;;;;;6.88;5.78;;;27.30;44.90;;;;;;5026474;28;20045;-66
2022/02/08 10:29:57;;;;;;;11.32;7.15;;;26.50;45.60;;;;;;5026462;28;20499;-66
2022/02/08 10:40:15;;;;;;;10.48;5.55;;;28.90;45.00;;;;;;5024052;28;20364;-67
2022/02/08 10:43:20;;;;;;;6.68;5.10;;;30.10;44.20;;;;;;5022557;28;20040;-67
2022/02/08 10:46:24;;;;;;;7.35;4.53;;;30.80;44.10;;;;;;5028858;28;20048;-67
2022/02/08 10:49:33;;;;;;;7.43;4.60;;;31.20;43.20;;;;;;5027578;28;20043;-68
2022/02/08 10:52:41;;;;;;;6.25;4.10;;;32.20;42.90;;;;;;5020492;28;20037;-67
2022/02/08 10:55:51;;;;;;;7.38;3.80;;;32.30;43.00;;;;;;5026391;28;20041;-67
2022/02/08 10:59:13;;;;;;;6.38;4.00;;;33.20;41.60;;;;;;5025273;28;20068;-67
2022/02/08 11:02:43;;;;;;;7.43;4.40;;;33.30;41.00;;;;;;5027477;28;20036;-67
2022/02/08 11:06:08;;;;;;;6.97;3.78;;;33.50;41.80;;;;;;5027675;28;20044;-67
2022/02/08 11:09:27;;;;;;;4.65;3.38;;;33.80;40.80;;;;;;5022360;28;20037;-67
2022/02/08 11:15:51;;;;;;;6.18;2.80;;;33.80;39.70;;;;;;5022322;28;20037;-67
2022/02/08 11:19:20;;;;;;;3.33;1.88;;;34.60;39.40;;;;;;5021190;28;20040;-67
2022/02/08 11:22:44;;;;;;;6.53;2.67;;;35.00;39.00;;;;;;5019301;28;20385;-68
2022/02/08 11:25:51;;;;;;;4.75;2.58;;;35.00;37.70;;;;;;5021513;28;20049;-67
2022/02/08 11:28:55;;;;;;;4.78;2.28;;;31.30;36.70;;;;;;5019282;28;20044;-67
2022/02/08 11:32:10;;;;;;;2.50;1.52;;;32.20;38.80;;;;;;5022395;28;20049;-67
2022/02/08 11:53:11;;;;;;;3.05;1.60;;;36.00;37.40;;;;;;5021912;28;20040;-68
2022/02/08 11:59:30;;;;;;;4.65;1.98;;;33.50;37.20;;;;;;5032714;28;20044;-67
2022/02/08 12:02:50;;;;;;;5.20;2.00;;;28.90;36.40;;;;;;5031396;28;20415;-67
2022/02/08 12:09:42;;;;;;;3.65;2.30;;;30.90;37.50;;;;;;5032748;28;20044;-67
2022/02/08 12:33:31;;;;;;;3.25;1.98;;;31.90;38.00;;;;;;5017763;28;20048;-66
2022/02/08 13:03:38;;;;;;;3.45;1.67;;;33.40;35.40;;;;;;5026102;28;20416;-67
2022/02/08 14:01:44;;;;;;;3.22;2.45;;;30.30;36.80;;;;;;5029532;28;20396;-67
2022/02/08 14:05:46;;;;;;;3.28;2.47;;;30.60;37.50;;;;;;5027573;28;20056;-67
2022/02/08 14:08:35;;;;;;;;;;;30.90;36.70;;;;;;5024269;28;20395;-67
2022/02/08 14:18:12;;;;;;;4.05;2.20;;;31.00;35.90;;;;;;5023437;28;20041;-67
2022/02/08 14:21:57;;;;;;;;;;;31.20;36.90;;;;;;5029029;28;20045;-67
2022/02/08 15:05:30;;;;;;;3.63;1.85;;;26.80;37.70;;;;;;5028861;28;20056;-67
2022/02/08 15:08:40;;;;;;;5.13;2.50;;;26.50;38.80;;;;;;5021455;28;20100;-67
2022/02/08 15:11:59;;;;;;;4.20;2.30;;;26.30;38.80;;;;;;5023262;28;20045;-67
2022/02/08 15:15:21;;;;;;;4.30;2.63;;;26.30;39.50;;;;;;5026375;28;20124;-67
2022/02/08 15:18:28;;;;;;;4.85;2.42;;;26.30;40.00;;;;;;5023929;28;20041;-67
2022/02/08 15:21:36;;;;;;;3.20;2.50;;;26.00;40.50;;;;;;5012360;28;20053;-67
2022/02/08 15:24:41;;;;;;;4.43;2.30;;;25.40;41.10;;;;;;5017087;28;20049;-67
2022/02/08 15:27:47;;;;;;;2.58;2.00;;;24.90;41.60;;;;;;5029508;28;20352;-67
2022/02/08 15:30:55;;;;;;;4.90;1.85;;;24.60;41.80;;;;;;5013233;28;20049;-67
2022/02/08 15:34:00;;;;;;;4.15;2.35;;;23.90;42.20;;;;;;5013800;28;20041;-67
2022/02/08 15:37:05;;;;;;;5.28;3.70;;;23.30;43.60;;;;;;5010981;28;20044;-66
2022/02/08 15:40:10;;;;;;;3.33;2.05;;;22.70;44.50;;;;;;5016868;28;20390;-67
2022/02/08 15:43:15;;;;;;;3.67;2.00;;;22.50;44.80;;;;;;5014945;28;20041;-67
2022/02/08 15:46:25;;;;;;;3.67;2.10;;;22.40;45.20;;;;;;5016639;28;20420;-67
2022/02/08 15:49:33;;;;;;;7.60;2.33;;;22.10;45.00;;;;;;5020673;28;20388;-67
2022/02/08 15:53:03;;;;;;;6.65;2.30;;;21.90;45.00;;;;;;5024505;28;20044;-67
2022/02/08 16:59:32;;;;;;;87.60;54.97;;;11.60;63.70;;;;;;5012600;28;20121;-68
2022/02/08 17:02:39;;;;;;;49.97;30.95;;;11.40;64.50;;;;;;5031991;28;20040;-67
2022/02/08 17:05:43;;;;;;;26.30;10.65;;;11.20;65.30;;;;;;5030010;28;20511;-67
2022/02/08 17:08:53;;;;;;;24.45;14.02;;;11.10;65.50;;;;;;5020138;28;20041;-67
2022/02/08 17:12:04;;;;;;;39.20;20.00;;;10.90;66.00;;;;;;5031232;28;20121;-67
2022/02/08 17:36:16;;;;;;;18.67;10.32;;;9.70;68.00;;;;;;5024791;28;20441;-68
2022/02/08 17:48:40;;;;;;;21.50;12.25;;;9.40;69.10;;;;;;5010891;28;20041;-68
2022/02/08 17:52:01;;;;;;;25.27;17.23;;;9.40;69.20;;;;;;5017763;28;20044;-68
2022/02/08 17:55:06;;;;;;;16.15;10.23;;;9.40;69.50;;;;;;5022598;28;20049;-67
2022/02/08 17:58:12;;;;;;;15.70;9.20;;;9.40;69.70;;;;;;5030792;28;20343;-67
2022/02/08 18:01:19;;;;;;;28.80;14.43;;;9.30;69.80;;;;;;5031134;28;20397;-68
2022/02/08 18:04:24;;;;;;;36.63;20.77;;;9.30;70.00;;;;;;5031092;28;20047;-68
2022/02/08 18:07:29;;;;;;;32.22;18.35;;;9.30;70.70;;;;;;5019198;28;20041;-67
2022/02/08 18:10:33;;;;;;;19.70;13.15;;;9.20;71.10;;;;;;5031147;28;20044;-68
2022/02/08 18:13:41;;;;;;;18.65;11.55;;;9.10;71.50;;;;;;5028059;28;20068;-68
2022/02/08 18:16:51;;;;;;;16.42;8.38;;;9.00;72.40;;;;;;5011800;28;20048;-67
2022/02/08 19:20:24;;;;;;;11.45;6.63;;;8.00;83.00;;;;;;5009796;28;20043;-67
2022/02/08 19:23:28;;;;;;;14.73;7.03;;;8.00;83.70;;;;;;5010221;28;20037;-67
2022/02/08 19:26:33;;;;;;;10.20;4.82;;;7.90;84.20;;;;;;5009903;28;20049;-67
2022/02/08 19:29:38;;;;;;;9.35;5.50;;;7.90;84.40;;;;;;5009744;28;20054;-67
2022/02/08 19:32:42;;;;;;;9.38;4.88;;;7.80;84.80;;;;;;5010413;28;20070;-67
2022/02/08 19:35:46;;;;;;;12.23;6.03;;;7.70;85.20;;;;;;5010160;28;20590;-67
2022/02/08 19:38:50;;;;;;;12.45;6.65;;;7.70;85.70;;;;;;5009813;28;20049;-68
2022/02/08 19:41:54;;;;;;;12.60;7.15;;;7.70;85.70;;;;;;5009837;28;20053;-68
2022/02/08 19:45:08;;;;;;;12.65;7.07;;;7.60;85.20;;;;;;5010056;28;20045;-68
2022/02/08 19:48:15;;;;;;;11.82;7.45;;;7.70;85.40;;;;;;5009636;28;20049;-67
2022/02/08 19:51:20;;;;;;;15.63;7.40;;;7.60;85.40;;;;;;5009777;28;20045;-67
2022/02/08 19:54:29;;;;;;;14.77;7.80;;;7.60;85.10;;;;;;5010074;28;20057;-67
2022/02/08 19:57:33;;;;;;;12.68;7.95;;;7.50;85.50;;;;;;5010231;28;20048;-67
2022/02/08 20:00:39;;;;;;;13.70;8.43;;;7.40;86.30;;;;;;5020853;28;20048;-68
2022/02/08 20:03:53;;;;;;;11.15;7.28;;;7.40;87.00;;;;;;5012890;28;20048;-67
2022/02/08 20:06:57;;;;;;;16.63;9.43;;;7.30;87.30;;;;;;5013734;28;20052;-67
2022/02/08 20:10:02;;;;;;;17.05;9.88;;;7.30;88.00;;;;;;5013469;28;20045;-67
2022/02/08 20:13:07;;;;;;;25.83;12.57;;;7.20;89.10;;;;;;5013530;28;20048;-68
2022/02/08 20:16:12;;;;;;;18.95;11.93;;;7.20;88.80;;;;;;5013535;28;20268;-67
2022/02/08 20:19:19;;;;;;;15.70;9.60;;;7.10;88.60;;;;;;5012745;28;20049;-67
2022/02/08 20:22:24;;;;;;;18.10;9.05;;;7.10;89.30;;;;;;5013592;28;20052;-67
2022/02/08 20:25:28;;;;;;;17.17;9.35;;;7.10;89.50;;;;;;5013082;28;20049;-67
2022/02/08 20:31:43;;;;;;;19.98;11.38;;;7.00;89.40;;;;;;5023828;28;20393;-67
2022/02/08 20:34:47;;;;;;;15.43;7.13;;;7.10;89.50;;;;;;5013054;28;20053;-68
2022/02/08 20:37:51;;;;;;;13.60;8.60;;;7.00;89.40;;;;;;5013647;28;20052;-67
2022/02/08 20:40:56;;;;;;;13.13;6.68;;;7.00;89.90;;;;;;5023285;28;20048;-67
2022/02/08 20:44:02;;;;;;;12.52;7.05;;;7.00;89.70;;;;;;5013071;28;20492;-68
2022/02/08 20:47:18;;;;;;;19.63;10.77;;;7.00;89.60;;;;;;5012913;28;20044;-67
2022/02/08 20:50:24;;;;;;;18.20;8.60;;;7.00;89.00;;;;;;5013058;28;20045;-67
2022/02/08 20:57:35;;;;;;;25.85;13.32;;;7.00;87.30;;;;;;5012444;28;20049;-68
2022/02/08 21:00:41;;;;;;;15.48;9.77;;;7.00;86.60;;;;;;5012162;28;20037;-68
2022/02/08 21:03:53;;;;;;;20.23;12.48;;;7.00;86.50;;;;;;5012654;28;20041;-67
2022/02/08 21:07:00;;;;;;;15.95;8.70;;;7.00;87.20;;;;;;5012376;28;20060;-68
2022/02/08 21:10:05;;;;;;;12.20;7.47;;;7.00;87.40;;;;;;5012021;28;20044;-68
2022/02/08 21:13:15;;;;;;;66.65;28.95;;;7.00;87.80;;;;;;5012668;28;20045;-68
2022/02/08 21:16:26;;;;;;;31.08;16.10;;;7.00;88.10;;;;;;5011370;28;20045;-67
2022/02/08 21:19:31;;;;;;;23.77;14.13;;;6.90;88.00;;;;;;5011054;28;20511;-67
2022/02/08 21:22:36;;;;;;;15.68;10.10;;;7.00;88.70;;;;;;5012234;28;20520;-68
2022/02/08 21:25:47;;;;;;;15.45;7.88;;;6.90;89.00;;;;;;5022665;28;20057;-67
2022/02/08 21:32:22;;;;;;;9.52;4.95;;;6.90;90.00;;;;;;5012287;28;20492;-67
2022/02/08 21:49:18;;;;;;;15.30;8.02;;;6.70;90.40;;;;;;5021944;28;20037;-67
2022/02/08 21:52:28;;;;;;;18.33;7.90;;;6.60;90.40;;;;;;5011673;28;20388;-68
2022/02/08 21:55:34;;;;;;;19.63;11.57;;;6.70;90.50;;;;;;5011728;28;20044;-67
2022/02/08 21:58:39;;;;;;;18.17;9.05;;;6.70;90.50;;;;;;5021766;28;20053;-68
2022/02/08 22:01:44;;;;;;;18.38;8.13;;;6.70;90.60;;;;;;5011330;28;20099;-67
2022/02/08 22:04:48;;;;;;;15.38;7.78;;;6.70;90.50;;;;;;5011565;28;20507;-67
2022/02/08 22:24:24;;;;;;;15.05;7.90;;;6.60;91.90;;;;;;5010979;28;20049;-67
2022/02/08 22:27:36;;;;;;;11.02;5.15;;;6.60;92.30;;;;;;5010952;28;20393;-67
2022/02/08 22:30:50;;;;;;;11.48;7.00;;;6.60;92.30;;;;;;5011199;28;20041;-67
2022/02/08 22:34:10;;;;;;;9.13;5.32;;;6.60;92.50;;;;;;5010873;28;20045;-67
2022/02/08 22:37:22;;;;;;;7.13;3.42;;;6.60;92.70;;;;;;5010603;28;20041;-67
2022/02/08 22:40:30;;;;;;;9.73;3.33;;;6.60;93.00;;;;;;5010339;28;20039;-67
2022/02/08 22:43:42;;;;;;;9.05;3.08;;;6.60;92.90;;;;;;5010973;28;20043;-68
2022/02/08 22:46:49;;;;;;;8.80;3.00;;;6.60;92.80;;;;;;5010654;28;20052;-67
2022/02/08 22:49:54;;;;;;;12.85;4.00;;;6.60;92.90;;;;;;5010178;28;20049;-67
2022/02/08 22:52:59;;;;;;;7.28;3.30;;;6.70;92.90;;;;;;5010620;28;20043;-67
2022/02/08 22:56:05;;;;;;;10.55;3.33;;;6.70;92.70;;;;;;5010494;28;20048;-67
2022/02/08 22:59:13;;;;;;;6.20;2.88;;;6.70;92.60;;;;;;5009997;28;20069;-68
2022/02/08 23:02:17;;;;;;;8.43;2.90;;;6.70;92.60;;;;;;5010961;28;20046;-67
2022/02/08 23:05:21;;;;;;;4.88;2.30;;;6.70;92.70;;;;;;5010364;28;20033;-68
2022/02/08 23:08:25;;;;;;;6.88;3.45;;;6.60;92.90;;;;;;5010071;28;20034;-68
2022/02/08 23:38:11;;;;;;;13.73;5.68;;;6.40;92.10;;;;;;5011765;28;19921;-67
2022/02/08 23:41:15;;;;;;;12.27;3.50;;;6.50;92.20;;;;;;5013579;28;20045;-68
2022/02/08 23:44:22;;;;;;;12.05;5.15;;;6.50;92.10;;;;;;5013773;28;20049;-68
2022/02/08 23:47:54;;;;;;;14.68;9.05;;;6.50;91.90;;;;;;5013930;28;20065;-67
2022/02/08 23:50:54;;;;;;;11.25;7.68;;;6.50;91.80;;;;;;5013816;28;20292;-68
2022/02/08 23:54:05;;;;;;;6.75;3.80;;;6.40;91.60;;;;;;5024837;28;20488;-67
2022/02/08 23:57:14;;;;;;;9.15;5.40;;;5.80;95.00;;;;;;5014055;28;20385;-68
